< < Back
Terminal Aerodrome Forecast


Current Version              Previous Versions:   1  2  3  4  5  6  7  8  9  

Terminal Aerodrome Forecast

722
FTUS44 KBMX 111723
TAFANB
TAF
KANB 111723Z 1118/1218 VRB05KT P6SM SCT050
     FM120000 05003KT P6SM BKN050=

Latest METAR

793
SAUS70 KWBC 112300 RRH
MTRANB
METAR KANB 112253Z AUTO 02003KT 10SM CLR 13/M04 A3016 RMK AO2 SLP219
T01331039


USA.gov is the U.S. government's official web portal to all federal, state and local government web resources and services.